Airfield :







YOU CAN JOIN US ON...

 
LOGIN :

Register | Disclaimer

   EN    FR    IT 

 









Legend :    VFR   Marginal VFR   IFR   Intensive IFR   Very Intensive IFR
Visi :
Ceiling :
>= 8 km
>= 3000ft
5 to 8 km
1000 to 3000 ft
1500m to 5 km
500 to 1000 ft
800 to 1500m
200 to 500 ft
< 800m
< 200 ft
Symbols :   Thunderstorms  Fog  Heavy snow  Heavy precipitations  Wind > 20 kt






- Airport Elevation : 11 ft


KGHG - Marshfield Municipal George Harlow Field

CURRENT METAR :
  • 132215Z AUTO 00000KT 10SM CLR 14/13 A3004 RMK AO2

EXPIRED METARs :
  • 132155Z AUTO 16004KT 10SM CLR 15/13 A3004 RMK AO2
  • 132135Z AUTO 18004KT 10SM FEW041 15/13 A3004 RMK AO2
  • 132055Z AUTO 15004KT 10SM SCT042 16/13 A3003 RMK AO2
  • 132035Z AUTO VRB03KT 10SM CLR 17/13 A3004 RMK AO2
  • 132015Z AUTO VRB04KT 10SM CLR 17/12 A3003 RMK AO2
  • 131955Z AUTO 07004KT 10SM FEW039 17/12 A3002 RMK AO2
  • 131935Z AUTO 05005KT 10SM CLR 18/12 A3003 RMK AO2

TAF N/A



MET'MAP, your aeronautical weather chart ! - Copyright ORBIFLY December 2007 - Disclaimer

ORBIFLY MET'MAP TEAM :

Programming & Development : Alexandra Zaïnal
Concept & Development : Baudouin d'Aumeries
Co-Development & Prog : Marc-Olivier Méhu
Technical & hardware support : Manuel Goepfert

Contact : metmap@orbifly.com




SOURCES & CREDITS :

   NOAA